This is the latest recevied weather packets stored in our database for station/object KI8L. If no packets are shown the sender has not sent any weather packets the latest 10 day(s).
| Time | Temp. | Humidity | Pressure | Rain* | Wind** | Luminosity | Snow |
|---|---|---|---|---|---|---|---|
| 1777691004 | 4.44° C | 99% | 1018.1 hPa | 0 mm | - | 0 W/m² | - |
| 1777690701 | 4.44° C | 99% | 1018.2 hPa | 0 mm | - | 0 W/m² | - |
| 1777690399 | 4.44° C | 99% | 1018.2 hPa | 0 mm | - | 0 W/m² | - |
| 1777690096 | 4.44° C | 99% | 1018.4 hPa | 0 mm | - | 0 W/m² | - |
| 1777689794 | 5° C | 99% | 1018.3 hPa | 0 mm | - | 0 W/m² | - |
| 1777689492 | 5° C | 99% | 1018.2 hPa | 0 mm | - | 0 W/m² | - |
| 1777689189 | 5° C | 98% | 1018.4 hPa | 0 mm | - | 0 W/m² | - |
| 1777688887 | 5° C | 97% | 1018.3 hPa | 0 mm | - | 0 W/m² | - |
| 1777688583 | 5.56° C | 95% | 1018.4 hPa | 0 mm | - | 0 W/m² | - |
| 1777688280 | 5° C | 95% | 1018.2 hPa | 0 mm | - | 0 W/m² | - |
| 1777687977 | 5° C | 97% | 1018.4 hPa | 0 mm | - | 0 W/m² | - |
| 1777674038 | 6.67° C | 81% | 1016.9 hPa | 0 mm | - | 299 W/m² | - |
| 1777673734 | 6.67° C | 81% | 1016.4 hPa | 0 mm | - | 107 W/m² | - |
| 1777672218 | 6.67° C | 83% | 1016.3 hPa | 0 mm | - | 124 W/m² | - |
| 1777671914 | 6.67° C | 82% | 1016.4 hPa | 0 mm | - | 170 W/m² | - |
| 1777671307 | 6.67° C | 81% | 1016.4 hPa | 0 mm | - | 109 W/m² | - |
| 1777670396 | 7.22° C | 86% | 1015.9 hPa | 0 mm | - | 351 W/m² | - |
| 1777670093 | 6.67° C | 89% | 1016 hPa | 0 mm | - | 187 W/m² | - |
| 1777668578 | 6.11° C | 95% | 1015.8 hPa | 0 mm | - | 178 W/m² | - |
| 1777667667 | 5.56° C | 98% | 1015.6 hPa | 0 mm | - | 185 W/m² | - |
| 1777666758 | 5° C | 99% | 1015.5 hPa | 0 mm | - | 83 W/m² | - |
| 1777665546 | 5.56° C | 99% | 1015.4 hPa | 0 mm | - | 115 W/m² | - |
| 1777664938 | 5.56° C | 99% | 1015.4 hPa | 1.78 mm | - | 87 W/m² | - |
| 1777663423 | 5° C | 99% | 1015 hPa | 1.27 mm | - | 113 W/m² | - |
| 1777661905 | 5.56° C | 99% | 1014.9 hPa | 0 mm | - | 93 W/m² | - |
* Rain latest hour (hover to see other rain measurements)
** Current wind speed in m/s (hover to see current wind gust speed)